sensor_id;sensor_type;location;lat;lon;timestamp;temperature;humidity
4637;DHT22;2331;48.806;9.140;2023-09-30T00:00:09;21.00;1.00
4637;DHT22;2331;48.806;9.140;2023-09-30T00:02:36;21.10;1.00
4637;DHT22;2331;48.806;9.140;2023-09-30T00:05:03;21.00;1.00
4637;DHT22;2331;48.806;9.140;2023-09-30T00:07:31;20.90;1.00
4637;DHT22;2331;48.806;9.140;2023-09-30T00:09:58;20.90;1.00
4637;DHT22;2331;48.806;9.140;2023-09-30T00:12:25;20.80;1.00
4637;DHT22;2331;48.806;9.140;2023-09-30T00:14:52;20.80;1.00
4637;DHT22;2331;48.806;9.140;2023-09-30T00:17:19;20.80;1.00
4637;DHT22;2331;48.806;9.140;2023-09-30T00:19:45;20.70;1.00
4637;DHT22;2331;48.806;9.140;2023-09-30T00:22:12;20.70;1.00
4637;DHT22;2331;48.806;9.140;2023-09-30T00:24:40;20.60;1.00
4637;DHT22;2331;48.806;9.140;2023-09-30T00:27:07;20.60;1.00
4637;DHT22;2331;48.806;9.140;2023-09-30T00:29:34;20.60;1.00
4637;DHT22;2331;48.806;9.140;2023-09-30T00:32:00;20.70;1.00
4637;DHT22;2331;48.806;9.140;2023-09-30T00:34:27;20.60;1.00
4637;DHT22;2331;48.806;9.140;2023-09-30T00:36:54;20.60;1.00
4637;DHT22;2331;48.806;9.140;2023-09-30T00:39:21;20.60;1.00
4637;DHT22;2331;48.806;9.140;2023-09-30T00:41:49;20.50;1.00
4637;DHT22;2331;48.806;9.140;2023-09-30T00:44:16;20.50;1.00
4637;DHT22;2331;48.806;9.140;2023-09-30T00:46:42;20.50;1.00
4637;DHT22;2331;48.806;9.140;2023-09-30T00:49:09;20.50;1.00
4637;DHT22;2331;48.806;9.140;2023-09-30T00:51:37;20.50;1.00
4637;DHT22;2331;48.806;9.140;2023-09-30T00:54:04;20.50;1.00
4637;DHT22;2331;48.806;9.140;2023-09-30T00:56:32;20.50;1.00
4637;DHT22;2331;48.806;9.140;2023-09-30T00:59:01;20.50;1.00
4637;DHT22;2331;48.806;9.140;2023-09-30T01:01:29;20.50;1.00
4637;DHT22;2331;48.806;9.140;2023-09-30T01:03:56;20.50;1.00
4637;DHT22;2331;48.806;9.140;2023-09-30T01:06:24;20.50;1.00
4637;DHT22;2331;48.806;9.140;2023-09-30T01:08:50;20.50;1.00
4637;DHT22;2331;48.806;9.140;2023-09-30T01:11:17;20.50;1.00
4637;DHT22;2331;48.806;9.140;2023-09-30T01:13:44;20.40;1.00
4637;DHT22;2331;48.806;9.140;2023-09-30T01:16:14;20.40;1.00
4637;DHT22;2331;48.806;9.140;2023-09-30T01:18:41;20.40;1.00
4637;DHT22;2331;48.806;9.140;2023-09-30T01:21:09;20.40;1.00
4637;DHT22;2331;48.806;9.140;2023-09-30T01:27:00;20.30;1.00
4637;DHT22;2331;48.806;9.140;2023-09-30T01:29:27;20.30;1.00
4637;DHT22;2331;48.806;9.140;2023-09-30T01:31:55;20.20;1.00
4637;DHT22;2331;48.806;9.140;2023-09-30T01:34:22;20.20;1.00
4637;DHT22;2331;48.806;9.140;2023-09-30T01:36:49;20.20;1.00
4637;DHT22;2331;48.806;9.140;2023-09-30T01:39:16;20.20;1.00
4637;DHT22;2331;48.806;9.140;2023-09-30T01:41:43;20.20;1.00
4637;DHT22;2331;48.806;9.140;2023-09-30T01:44:12;20.20;1.00
4637;DHT22;2331;48.806;9.140;2023-09-30T01:46:39;20.10;1.00
4637;DHT22;2331;48.806;9.140;2023-09-30T01:49:06;20.20;1.00
4637;DHT22;2331;48.806;9.140;2023-09-30T01:51:34;20.20;1.00
4637;DHT22;2331;48.806;9.140;2023-09-30T01:54:02;20.20;1.00
4637;DHT22;2331;48.806;9.140;2023-09-30T01:56:30;20.20;1.00
4637;DHT22;2331;48.806;9.140;2023-09-30T01:58:58;20.20;1.00
4637;DHT22;2331;48.806;9.140;2023-09-30T02:01:26;20.20;1.00
4637;DHT22;2331;48.806;9.140;2023-09-30T02:03:53;20.20;1.00
4637;DHT22;2331;48.806;9.140;2023-09-30T02:06:20;20.20;1.00
4637;DHT22;2331;48.806;9.140;2023-09-30T02:08:46;20.10;1.00
4637;DHT22;2331;48.806;9.140;2023-09-30T02:11:13;20.10;1.00
4637;DHT22;2331;48.806;9.140;2023-09-30T02:13:40;20.00;1.00
4637;DHT22;2331;48.806;9.140;2023-09-30T02:16:11;19.90;1.00
4637;DHT22;2331;48.806;9.140;2023-09-30T02:18:39;19.80;1.00
4637;DHT22;2331;48.806;9.140;2023-09-30T02:21:07;19.80;1.00
4637;DHT22;2331;48.806;9.140;2023-09-30T02:23:34;19.70;1.00
4637;DHT22;2331;48.806;9.140;2023-09-30T02:26:01;19.70;1.00
4637;DHT22;2331;48.806;9.140;2023-09-30T02:28:28;19.70;1.00
4637;DHT22;2331;48.806;9.140;2023-09-30T02:30:58;19.70;1.00
4637;DHT22;2331;48.806;9.140;2023-09-30T02:33:25;19.60;1.00
4637;DHT22;2331;48.806;9.140;2023-09-30T02:35:54;19.60;1.00
4637;DHT22;2331;48.806;9.140;2023-09-30T02:38:20;19.50;1.00
4637;DHT22;2331;48.806;9.140;2023-09-30T02:40:48;19.50;1.00
4637;DHT22;2331;48.806;9.140;2023-09-30T02:43:15;19.40;1.00
4637;DHT22;2331;48.806;9.140;2023-09-30T02:45:42;19.40;1.00
4637;DHT22;2331;48.806;9.140;2023-09-30T02:48:09;19.40;1.00
4637;DHT22;2331;48.806;9.140;2023-09-30T02:50:36;19.30;1.00
4637;DHT22;2331;48.806;9.140;2023-09-30T02:53:06;19.30;1.00
4637;DHT22;2331;48.806;9.140;2023-09-30T02:55:33;19.40;1.00
4637;DHT22;2331;48.806;9.140;2023-09-30T02:58:00;19.40;1.00
4637;DHT22;2331;48.806;9.140;2023-09-30T03:00:28;19.50;1.00
4637;DHT22;2331;48.806;9.140;2023-09-30T03:03:00;19.50;1.00
4637;DHT22;2331;48.806;9.140;2023-09-30T03:05:27;19.60;1.00
4637;DHT22;2331;48.806;9.140;2023-09-30T03:07:56;19.60;1.00
4637;DHT22;2331;48.806;9.140;2023-09-30T03:10:24;19.60;1.00
4637;DHT22;2331;48.806;9.140;2023-09-30T03:12:52;19.70;1.00
4637;DHT22;2331;48.806;9.140;2023-09-30T03:15:19;19.70;1.00
4637;DHT22;2331;48.806;9.140;2023-09-30T03:17:46;19.70;1.00
4637;DHT22;2331;48.806;9.140;2023-09-30T03:20:14;19.70;1.00
4637;DHT22;2331;48.806;9.140;2023-09-30T03:22:45;19.70;1.00
4637;DHT22;2331;48.806;9.140;2023-09-30T03:25:13;19.70;1.00
4637;DHT22;2331;48.806;9.140;2023-09-30T03:27:42;19.70;1.00
4637;DHT22;2331;48.806;9.140;2023-09-30T03:30:12;19.60;1.00
4637;DHT22;2331;48.806;9.140;2023-09-30T03:32:39;19.60;1.00
4637;DHT22;2331;48.806;9.140;2023-09-30T03:35:06;19.70;1.00
4637;DHT22;2331;48.806;9.140;2023-09-30T03:37:36;19.70;1.00
4637;DHT22;2331;48.806;9.140;2023-09-30T03:40:03;19.70;1.00
4637;DHT22;2331;48.806;9.140;2023-09-30T03:42:41;19.70;1.00
4637;DHT22;2331;48.806;9.140;2023-09-30T03:45:09;19.70;1.00
4637;DHT22;2331;48.806;9.140;2023-09-30T03:47:37;19.60;1.00
4637;DHT22;2331;48.806;9.140;2023-09-30T03:50:05;19.70;1.00
4637;DHT22;2331;48.806;9.140;2023-09-30T03:52:38;19.70;1.00
4637;DHT22;2331;48.806;9.140;2023-09-30T03:55:06;19.70;1.00
4637;DHT22;2331;48.806;9.140;2023-09-30T03:57:33;19.70;1.00
4637;DHT22;2331;48.806;9.140;2023-09-30T04:00:01;19.70;1.00
4637;DHT22;2331;48.806;9.140;2023-09-30T04:02:31;19.70;1.00
4637;DHT22;2331;48.806;9.140;2023-09-30T04:04:58;19.70;1.00
4637;DHT22;2331;48.806;9.140;2023-09-30T04:07:25;19.70;1.00
4637;DHT22;2331;48.806;9.140;2023-09-30T04:09:54;19.70;1.00
4637;DHT22;2331;48.806;9.140;2023-09-30T04:12:21;19.70;1.00
4637;DHT22;2331;48.806;9.140;2023-09-30T04:14:48;19.60;1.00
4637;DHT22;2331;48.806;9.140;2023-09-30T04:17:16;19.60;1.00
4637;DHT22;2331;48.806;9.140;2023-09-30T04:19:43;19.60;1.00
4637;DHT22;2331;48.806;9.140;2023-09-30T04:22:11;19.70;1.00
4637;DHT22;2331;48.806;9.140;2023-09-30T04:24:38;19.70;1.00
4637;DHT22;2331;48.806;9.140;2023-09-30T04:27:05;19.70;1.00
4637;DHT22;2331;48.806;9.140;2023-09-30T04:29:33;19.60;1.00
4637;DHT22;2331;48.806;9.140;2023-09-30T04:32:00;19.60;1.00
4637;DHT22;2331;48.806;9.140;2023-09-30T04:34:28;19.60;1.00
4637;DHT22;2331;48.806;9.140;2023-09-30T04:36:54;19.60;1.00
4637;DHT22;2331;48.806;9.140;2023-09-30T04:39:21;19.60;1.00
4637;DHT22;2331;48.806;9.140;2023-09-30T04:41:48;19.50;1.00
4637;DHT22;2331;48.806;9.140;2023-09-30T04:44:15;19.50;1.00
4637;DHT22;2331;48.806;9.140;2023-09-30T04:46:42;19.50;1.00
4637;DHT22;2331;48.806;9.140;2023-09-30T04:49:11;19.50;1.00
4637;DHT22;2331;48.806;9.140;2023-09-30T04:51:39;19.50;1.00
4637;DHT22;2331;48.806;9.140;2023-09-30T04:54:06;19.50;1.00
4637;DHT22;2331;48.806;9.140;2023-09-30T04:56:33;19.60;1.00
4637;DHT22;2331;48.806;9.140;2023-09-30T04:59:00;19.50;1.00
4637;DHT22;2331;48.806;9.140;2023-09-30T05:01:27;19.50;1.00
4637;DHT22;2331;48.806;9.140;2023-09-30T05:03:54;19.50;1.00
4637;DHT22;2331;48.806;9.140;2023-09-30T05:06:21;19.50;1.00
4637;DHT22;2331;48.806;9.140;2023-09-30T05:08:49;19.50;1.00
4637;DHT22;2331;48.806;9.140;2023-09-30T05:11:16;19.50;1.00
4637;DHT22;2331;48.806;9.140;2023-09-30T05:13:42;19.50;1.00
4637;DHT22;2331;48.806;9.140;2023-09-30T05:16:10;19.50;1.00
4637;DHT22;2331;48.806;9.140;2023-09-30T05:18:38;19.50;1.00
4637;DHT22;2331;48.806;9.140;2023-09-30T05:21:05;19.50;1.00
4637;DHT22;2331;48.806;9.140;2023-09-30T05:23:32;19.40;1.00
4637;DHT22;2331;48.806;9.140;2023-09-30T05:26:01;19.40;1.00
4637;DHT22;2331;48.806;9.140;2023-09-30T05:28:27;19.40;1.00
4637;DHT22;2331;48.806;9.140;2023-09-30T05:30:54;19.40;1.00
4637;DHT22;2331;48.806;9.140;2023-09-30T05:33:22;19.40;1.00
4637;DHT22;2331;48.806;9.140;2023-09-30T05:35:48;19.50;1.00
4637;DHT22;2331;48.806;9.140;2023-09-30T05:38:15;19.50;1.00
4637;DHT22;2331;48.806;9.140;2023-09-30T05:40:45;19.40;1.00
4637;DHT22;2331;48.806;9.140;2023-09-30T05:43:13;19.40;1.00
4637;DHT22;2331;48.806;9.140;2023-09-30T05:45:40;19.40;1.00
4637;DHT22;2331;48.806;9.140;2023-09-30T05:48:15;19.40;1.00
4637;DHT22;2331;48.806;9.140;2023-09-30T05:50:42;19.40;1.00
4637;DHT22;2331;48.806;9.140;2023-09-30T05:53:09;19.40;1.00
4637;DHT22;2331;48.806;9.140;2023-09-30T05:55:37;19.30;1.00
4637;DHT22;2331;48.806;9.140;2023-09-30T05:58:04;19.20;1.00
4637;DHT22;2331;48.806;9.140;2023-09-30T06:00:32;19.20;1.00
4637;DHT22;2331;48.806;9.140;2023-09-30T06:03:01;19.20;1.00
4637;DHT22;2331;48.806;9.140;2023-09-30T06:05:29;19.10;1.00
4637;DHT22;2331;48.806;9.140;2023-09-30T06:07:57;19.10;1.00
4637;DHT22;2331;48.806;9.140;2023-09-30T06:10:25;19.10;1.00
4637;DHT22;2331;48.806;9.140;2023-09-30T06:12:52;19.00;1.00
4637;DHT22;2331;48.806;9.140;2023-09-30T06:15:21;19.10;1.00
4637;DHT22;2331;48.806;9.140;2023-09-30T06:17:56;19.00;1.00
4637;DHT22;2331;48.806;9.140;2023-09-30T06:20:23;19.00;1.00
4637;DHT22;2331;48.806;9.140;2023-09-30T06:22:51;19.00;1.00
4637;DHT22;2331;48.806;9.140;2023-09-30T06:25:19;19.10;1.00
4637;DHT22;2331;48.806;9.140;2023-09-30T06:27:49;19.10;1.00
4637;DHT22;2331;48.806;9.140;2023-09-30T06:30:16;19.10;1.00
4637;DHT22;2331;48.806;9.140;2023-09-30T06:32:44;19.10;1.00
4637;DHT22;2331;48.806;9.140;2023-09-30T06:35:13;19.20;1.00
4637;DHT22;2331;48.806;9.140;2023-09-30T06:37:40;19.30;1.00
4637;DHT22;2331;48.806;9.140;2023-09-30T06:40:09;19.30;1.00
4637;DHT22;2331;48.806;9.140;2023-09-30T06:42:38;19.30;1.00
4637;DHT22;2331;48.806;9.140;2023-09-30T06:45:06;19.30;1.00
4637;DHT22;2331;48.806;9.140;2023-09-30T06:47:36;19.30;1.00
4637;DHT22;2331;48.806;9.140;2023-09-30T06:50:05;19.30;1.00
4637;DHT22;2331;48.806;9.140;2023-09-30T06:52:34;19.30;1.00
4637;DHT22;2331;48.806;9.140;2023-09-30T06:55:01;19.30;1.00
4637;DHT22;2331;48.806;9.140;2023-09-30T06:57:30;19.30;1.00
4637;DHT22;2331;48.806;9.140;2023-09-30T06:59:57;19.30;1.00
4637;DHT22;2331;48.806;9.140;2023-09-30T07:02:24;19.20;1.00
4637;DHT22;2331;48.806;9.140;2023-09-30T07:04:51;19.20;1.00
4637;DHT22;2331;48.806;9.140;2023-09-30T07:07:18;19.10;1.00
4637;DHT22;2331;48.806;9.140;2023-09-30T07:09:46;19.10;1.00
4637;DHT22;2331;48.806;9.140;2023-09-30T07:12:13;19.10;1.00
4637;DHT22;2331;48.806;9.140;2023-09-30T07:14:40;19.10;1.00
4637;DHT22;2331;48.806;9.140;2023-09-30T07:17:07;19.10;1.00
4637;DHT22;2331;48.806;9.140;2023-09-30T07:19:33;19.10;1.00
4637;DHT22;2331;48.806;9.140;2023-09-30T07:22:00;19.10;1.00
4637;DHT22;2331;48.806;9.140;2023-09-30T07:24:28;19.10;1.00
4637;DHT22;2331;48.806;9.140;2023-09-30T07:26:56;19.20;1.00
4637;DHT22;2331;48.806;9.140;2023-09-30T07:29:23;19.20;1.00
4637;DHT22;2331;48.806;9.140;2023-09-30T07:31:50;19.30;1.00
4637;DHT22;2331;48.806;9.140;2023-09-30T07:34:17;19.20;1.00
4637;DHT22;2331;48.806;9.140;2023-09-30T07:36:44;19.20;1.00
4637;DHT22;2331;48.806;9.140;2023-09-30T07:39:10;19.20;1.00
4637;DHT22;2331;48.806;9.140;2023-09-30T07:41:38;19.30;1.00
4637;DHT22;2331;48.806;9.140;2023-09-30T07:44:06;19.20;1.00
4637;DHT22;2331;48.806;9.140;2023-09-30T07:46:34;19.20;1.00
4637;DHT22;2331;48.806;9.140;2023-09-30T07:49:01;19.30;1.00
4637;DHT22;2331;48.806;9.140;2023-09-30T07:51:28;19.40;1.00
4637;DHT22;2331;48.806;9.140;2023-09-30T07:53:56;19.40;1.00
4637;DHT22;2331;48.806;9.140;2023-09-30T07:56:22;19.50;1.00
4637;DHT22;2331;48.806;9.140;2023-09-30T07:58:49;19.50;1.00
4637;DHT22;2331;48.806;9.140;2023-09-30T08:01:17;19.50;1.00
4637;DHT22;2331;48.806;9.140;2023-09-30T08:03:45;19.50;1.00
4637;DHT22;2331;48.806;9.140;2023-09-30T08:06:12;19.60;1.00
4637;DHT22;2331;48.806;9.140;2023-09-30T08:08:38;19.60;1.00
4637;DHT22;2331;48.806;9.140;2023-09-30T08:11:05;19.60;1.00
4637;DHT22;2331;48.806;9.140;2023-09-30T08:13:32;19.60;1.00
4637;DHT22;2331;48.806;9.140;2023-09-30T08:15:59;19.70;1.00
4637;DHT22;2331;48.806;9.140;2023-09-30T08:18:27;19.70;1.00
4637;DHT22;2331;48.806;9.140;2023-09-30T08:20:54;19.80;1.00
4637;DHT22;2331;48.806;9.140;2023-09-30T08:23:21;19.80;1.00
4637;DHT22;2331;48.806;9.140;2023-09-30T08:25:47;19.70;1.00
4637;DHT22;2331;48.806;9.140;2023-09-30T08:28:14;19.90;1.00
4637;DHT22;2331;48.806;9.140;2023-09-30T08:30:41;19.90;1.00
4637;DHT22;2331;48.806;9.140;2023-09-30T08:33:08;19.90;1.00
4637;DHT22;2331;48.806;9.140;2023-09-30T08:35:37;19.90;1.00
4637;DHT22;2331;48.806;9.140;2023-09-30T08:38:03;19.90;1.00
4637;DHT22;2331;48.806;9.140;2023-09-30T08:40:31;19.80;1.00
4637;DHT22;2331;48.806;9.140;2023-09-30T08:42:57;19.90;1.00
4637;DHT22;2331;48.806;9.140;2023-09-30T08:45:28;19.90;1.00
4637;DHT22;2331;48.806;9.140;2023-09-30T08:47:55;20.00;1.00
4637;DHT22;2331;48.806;9.140;2023-09-30T08:50:22;20.00;1.00
4637;DHT22;2331;48.806;9.140;2023-09-30T08:52:51;20.00;1.00
4637;DHT22;2331;48.806;9.140;2023-09-30T08:55:18;20.10;1.00
4637;DHT22;2331;48.806;9.140;2023-09-30T08:57:46;20.10;1.00
4637;DHT22;2331;48.806;9.140;2023-09-30T09:00:13;20.20;1.00
4637;DHT22;2331;48.806;9.140;2023-09-30T09:02:40;20.30;1.00
4637;DHT22;2331;48.806;9.140;2023-09-30T09:05:07;20.40;1.00
4637;DHT22;2331;48.806;9.140;2023-09-30T09:07:36;20.30;1.00
4637;DHT22;2331;48.806;9.140;2023-09-30T09:10:06;20.50;1.00
4637;DHT22;2331;48.806;9.140;2023-09-30T09:12:34;20.50;1.00
4637;DHT22;2331;48.806;9.140;2023-09-30T09:15:02;20.50;1.00
4637;DHT22;2331;48.806;9.140;2023-09-30T09:17:42;20.40;1.00
4637;DHT22;2331;48.806;9.140;2023-09-30T09:20:10;20.50;1.00
4637;DHT22;2331;48.806;9.140;2023-09-30T09:22:38;20.60;1.00
4637;DHT22;2331;48.806;9.140;2023-09-30T09:25:07;20.70;1.00
4637;DHT22;2331;48.806;9.140;2023-09-30T09:27:34;20.70;1.00
4637;DHT22;2331;48.806;9.140;2023-09-30T09:30:14;20.80;1.00
4637;DHT22;2331;48.806;9.140;2023-09-30T09:32:52;20.90;1.00
4637;DHT22;2331;48.806;9.140;2023-09-30T09:35:20;20.90;1.00
4637;DHT22;2331;48.806;9.140;2023-09-30T09:37:55;21.00;1.00
4637;DHT22;2331;48.806;9.140;2023-09-30T09:40:26;21.00;1.00
4637;DHT22;2331;48.806;9.140;2023-09-30T09:42:53;21.10;1.00
4637;DHT22;2331;48.806;9.140;2023-09-30T09:45:21;21.20;1.00
4637;DHT22;2331;48.806;9.140;2023-09-30T09:47:49;21.20;1.00
4637;DHT22;2331;48.806;9.140;2023-09-30T09:50:18;21.20;1.00
4637;DHT22;2331;48.806;9.140;2023-09-30T09:52:47;21.30;1.00
4637;DHT22;2331;48.806;9.140;2023-09-30T09:55:15;21.30;1.00
4637;DHT22;2331;48.806;9.140;2023-09-30T09:57:45;21.40;1.00
4637;DHT22;2331;48.806;9.140;2023-09-30T10:00:14;21.40;1.00
4637;DHT22;2331;48.806;9.140;2023-09-30T10:02:42;21.40;1.00
4637;DHT22;2331;48.806;9.140;2023-09-30T10:05:09;21.40;1.00
4637;DHT22;2331;48.806;9.140;2023-09-30T10:07:39;21.50;1.00
4637;DHT22;2331;48.806;9.140;2023-09-30T10:10:13;21.50;1.00
4637;DHT22;2331;48.806;9.140;2023-09-30T10:12:41;21.50;1.00
4637;DHT22;2331;48.806;9.140;2023-09-30T10:15:38;21.50;1.00
4637;DHT22;2331;48.806;9.140;2023-09-30T10:18:09;21.50;1.00
4637;DHT22;2331;48.806;9.140;2023-09-30T10:20:37;21.60;1.00
4637;DHT22;2331;48.806;9.140;2023-09-30T10:23:26;21.60;1.00
4637;DHT22;2331;48.806;9.140;2023-09-30T10:26:13;21.60;1.00
4637;DHT22;2331;48.806;9.140;2023-09-30T10:28:44;21.60;1.00
4637;DHT22;2331;48.806;9.140;2023-09-30T10:31:14;21.60;1.00
4637;DHT22;2331;48.806;9.140;2023-09-30T10:34:18;21.60;1.00
4637;DHT22;2331;48.806;9.140;2023-09-30T10:36:46;21.70;1.00
4637;DHT22;2331;48.806;9.140;2023-09-30T10:39:13;21.90;1.00
4637;DHT22;2331;48.806;9.140;2023-09-30T10:41:50;21.90;1.00
4637;DHT22;2331;48.806;9.140;2023-09-30T10:44:33;22.00;1.00
4637;DHT22;2331;48.806;9.140;2023-09-30T10:47:36;22.00;1.00
4637;DHT22;2331;48.806;9.140;2023-09-30T10:50:04;22.00;1.00
4637;DHT22;2331;48.806;9.140;2023-09-30T10:52:51;22.00;1.00
4637;DHT22;2331;48.806;9.140;2023-09-30T10:55:19;22.00;1.00
4637;DHT22;2331;48.806;9.140;2023-09-30T10:57:50;22.00;1.00
4637;DHT22;2331;48.806;9.140;2023-09-30T11:00:18;22.00;1.00
4637;DHT22;2331;48.806;9.140;2023-09-30T11:02:49;22.10;1.00
4637;DHT22;2331;48.806;9.140;2023-09-30T11:05:17;22.10;1.00
4637;DHT22;2331;48.806;9.140;2023-09-30T11:07:46;22.10;1.00
4637;DHT22;2331;48.806;9.140;2023-09-30T11:10:16;22.10;1.00
4637;DHT22;2331;48.806;9.140;2023-09-30T11:12:53;22.10;1.00
4637;DHT22;2331;48.806;9.140;2023-09-30T11:15:20;22.10;1.00
4637;DHT22;2331;48.806;9.140;2023-09-30T11:17:48;22.20;1.00
4637;DHT22;2331;48.806;9.140;2023-09-30T11:23:37;22.30;1.00
4637;DHT22;2331;48.806;9.140;2023-09-30T11:26:05;22.30;1.00
4637;DHT22;2331;48.806;9.140;2023-09-30T11:28:39;22.30;1.00
4637;DHT22;2331;48.806;9.140;2023-09-30T11:31:11;22.40;1.00
4637;DHT22;2331;48.806;9.140;2023-09-30T11:33:50;22.40;1.00
4637;DHT22;2331;48.806;9.140;2023-09-30T11:36:19;22.40;1.00
4637;DHT22;2331;48.806;9.140;2023-09-30T11:38:47;22.50;1.00
4637;DHT22;2331;48.806;9.140;2023-09-30T11:41:16;22.50;1.00
4637;DHT22;2331;48.806;9.140;2023-09-30T11:43:59;22.50;1.00
4637;DHT22;2331;48.806;9.140;2023-09-30T11:46:27;22.50;1.00
4637;DHT22;2331;48.806;9.140;2023-09-30T11:49:01;22.60;1.00
4637;DHT22;2331;48.806;9.140;2023-09-30T11:51:28;22.60;1.00
4637;DHT22;2331;48.806;9.140;2023-09-30T11:53:57;22.70;1.00
4637;DHT22;2331;48.806;9.140;2023-09-30T11:56:24;22.70;1.00
4637;DHT22;2331;48.806;9.140;2023-09-30T11:58:55;22.70;1.00
4637;DHT22;2331;48.806;9.140;2023-09-30T12:01:22;22.70;1.00
4637;DHT22;2331;48.806;9.140;2023-09-30T12:03:51;22.70;1.00
4637;DHT22;2331;48.806;9.140;2023-09-30T12:06:20;22.80;1.00
4637;DHT22;2331;48.806;9.140;2023-09-30T12:08:46;22.80;1.00
4637;DHT22;2331;48.806;9.140;2023-09-30T12:11:13;22.90;1.00
4637;DHT22;2331;48.806;9.140;2023-09-30T12:13:41;23.00;1.00
4637;DHT22;2331;48.806;9.140;2023-09-30T12:16:10;23.00;1.00
4637;DHT22;2331;48.806;9.140;2023-09-30T12:18:36;23.10;1.00
4637;DHT22;2331;48.806;9.140;2023-09-30T12:21:03;23.10;1.00
4637;DHT22;2331;48.806;9.140;2023-09-30T12:23:33;23.20;1.00
4637;DHT22;2331;48.806;9.140;2023-09-30T12:26:00;23.10;1.00
4637;DHT22;2331;48.806;9.140;2023-09-30T12:28:30;23.20;1.00
4637;DHT22;2331;48.806;9.140;2023-09-30T12:30:57;23.20;1.00
4637;DHT22;2331;48.806;9.140;2023-09-30T12:33:24;23.20;1.00
4637;DHT22;2331;48.806;9.140;2023-09-30T12:35:53;23.20;1.00
4637;DHT22;2331;48.806;9.140;2023-09-30T12:38:20;23.30;1.00
4637;DHT22;2331;48.806;9.140;2023-09-30T12:40:48;23.30;1.00
4637;DHT22;2331;48.806;9.140;2023-09-30T12:43:15;23.40;1.00
4637;DHT22;2331;48.806;9.140;2023-09-30T12:45:40;23.40;1.00
4637;DHT22;2331;48.806;9.140;2023-09-30T12:48:07;23.50;1.00
4637;DHT22;2331;48.806;9.140;2023-09-30T12:50:34;23.50;1.00
4637;DHT22;2331;48.806;9.140;2023-09-30T12:53:00;23.50;1.00
4637;DHT22;2331;48.806;9.140;2023-09-30T12:55:27;23.50;1.00
4637;DHT22;2331;48.806;9.140;2023-09-30T12:57:55;23.50;1.00
4637;DHT22;2331;48.806;9.140;2023-09-30T13:00:22;23.50;1.00
4637;DHT22;2331;48.806;9.140;2023-09-30T13:02:50;23.50;1.00
4637;DHT22;2331;48.806;9.140;2023-09-30T13:05:17;23.50;1.00
4637;DHT22;2331;48.806;9.140;2023-09-30T13:07:45;23.50;1.00
4637;DHT22;2331;48.806;9.140;2023-09-30T13:10:12;23.50;1.00
4637;DHT22;2331;48.806;9.140;2023-09-30T13:12:39;23.50;1.00
4637;DHT22;2331;48.806;9.140;2023-09-30T13:15:08;23.60;1.00
4637;DHT22;2331;48.806;9.140;2023-09-30T13:17:35;23.60;1.00
4637;DHT22;2331;48.806;9.140;2023-09-30T13:20:02;23.70;1.00
4637;DHT22;2331;48.806;9.140;2023-09-30T13:22:30;23.70;1.00
4637;DHT22;2331;48.806;9.140;2023-09-30T13:24:57;23.60;1.00
4637;DHT22;2331;48.806;9.140;2023-09-30T13:27:24;23.70;1.00
4637;DHT22;2331;48.806;9.140;2023-09-30T13:29:50;23.70;1.00
4637;DHT22;2331;48.806;9.140;2023-09-30T13:32:21;23.60;1.00
4637;DHT22;2331;48.806;9.140;2023-09-30T13:34:48;23.60;1.00
4637;DHT22;2331;48.806;9.140;2023-09-30T13:37:15;23.70;1.00
4637;DHT22;2331;48.806;9.140;2023-09-30T13:39:41;23.70;1.00
4637;DHT22;2331;48.806;9.140;2023-09-30T13:42:08;23.80;1.00
4637;DHT22;2331;48.806;9.140;2023-09-30T13:44:35;23.90;1.00
4637;DHT22;2331;48.806;9.140;2023-09-30T13:47:02;23.90;1.00
4637;DHT22;2331;48.806;9.140;2023-09-30T13:49:30;23.90;1.00
4637;DHT22;2331;48.806;9.140;2023-09-30T13:51:59;23.90;1.00
4637;DHT22;2331;48.806;9.140;2023-09-30T13:54:25;23.90;1.00
4637;DHT22;2331;48.806;9.140;2023-09-30T13:56:52;23.90;1.00
4637;DHT22;2331;48.806;9.140;2023-09-30T13:59:19;23.90;1.00
4637;DHT22;2331;48.806;9.140;2023-09-30T14:01:46;23.90;1.00
4637;DHT22;2331;48.806;9.140;2023-09-30T14:04:13;23.90;1.00
4637;DHT22;2331;48.806;9.140;2023-09-30T14:06:43;23.90;1.00
4637;DHT22;2331;48.806;9.140;2023-09-30T14:09:10;23.90;1.00
4637;DHT22;2331;48.806;9.140;2023-09-30T14:11:40;23.90;1.00
4637;DHT22;2331;48.806;9.140;2023-09-30T14:14:07;24.00;1.00
4637;DHT22;2331;48.806;9.140;2023-09-30T14:16:34;23.90;1.00
4637;DHT22;2331;48.806;9.140;2023-09-30T14:19:02;23.90;1.00
4637;DHT22;2331;48.806;9.140;2023-09-30T14:21:29;23.90;1.00
4637;DHT22;2331;48.806;9.140;2023-09-30T14:23:58;24.00;1.00
4637;DHT22;2331;48.806;9.140;2023-09-30T14:26:27;24.00;1.00
4637;DHT22;2331;48.806;9.140;2023-09-30T14:28:54;24.10;1.00
4637;DHT22;2331;48.806;9.140;2023-09-30T14:31:21;24.10;1.00
4637;DHT22;2331;48.806;9.140;2023-09-30T14:33:47;24.10;1.00
4637;DHT22;2331;48.806;9.140;2023-09-30T14:36:14;23.90;1.00
4637;DHT22;2331;48.806;9.140;2023-09-30T14:38:41;23.90;1.00
4637;DHT22;2331;48.806;9.140;2023-09-30T14:41:09;23.80;1.00
4637;DHT22;2331;48.806;9.140;2023-09-30T14:43:37;23.80;1.00
4637;DHT22;2331;48.806;9.140;2023-09-30T14:46:04;23.80;1.00
4637;DHT22;2331;48.806;9.140;2023-09-30T14:48:31;23.80;1.00
4637;DHT22;2331;48.806;9.140;2023-09-30T14:50:58;23.80;1.00
4637;DHT22;2331;48.806;9.140;2023-09-30T14:53:25;23.80;1.00
4637;DHT22;2331;48.806;9.140;2023-09-30T14:55:51;23.80;1.00
4637;DHT22;2331;48.806;9.140;2023-09-30T14:58:19;23.70;1.00
4637;DHT22;2331;48.806;9.140;2023-09-30T15:00:46;23.70;1.00
4637;DHT22;2331;48.806;9.140;2023-09-30T15:03:13;23.70;1.00
4637;DHT22;2331;48.806;9.140;2023-09-30T15:05:40;23.70;1.00
4637;DHT22;2331;48.806;9.140;2023-09-30T15:08:07;23.60;1.00
4637;DHT22;2331;48.806;9.140;2023-09-30T15:10:34;23.50;1.00
4637;DHT22;2331;48.806;9.140;2023-09-30T15:13:01;23.50;1.00
4637;DHT22;2331;48.806;9.140;2023-09-30T15:15:31;23.40;1.00
4637;DHT22;2331;48.806;9.140;2023-09-30T15:18:01;23.50;1.00
4637;DHT22;2331;48.806;9.140;2023-09-30T15:20:28;23.50;1.00
4637;DHT22;2331;48.806;9.140;2023-09-30T15:22:55;23.60;1.00
4637;DHT22;2331;48.806;9.140;2023-09-30T15:25:22;23.50;1.00
4637;DHT22;2331;48.806;9.140;2023-09-30T15:27:48;23.50;1.00
4637;DHT22;2331;48.806;9.140;2023-09-30T15:30:15;23.50;1.00
4637;DHT22;2331;48.806;9.140;2023-09-30T15:32:43;23.50;1.00
4637;DHT22;2331;48.806;9.140;2023-09-30T15:35:10;23.50;1.00
4637;DHT22;2331;48.806;9.140;2023-09-30T15:37:37;23.50;1.00
4637;DHT22;2331;48.806;9.140;2023-09-30T15:40:04;23.50;1.00
4637;DHT22;2331;48.806;9.140;2023-09-30T15:42:32;23.50;1.00
4637;DHT22;2331;48.806;9.140;2023-09-30T15:44:59;23.50;1.00
4637;DHT22;2331;48.806;9.140;2023-09-30T15:47:25;23.50;1.00
4637;DHT22;2331;48.806;9.140;2023-09-30T15:49:53;23.60;1.00
4637;DHT22;2331;48.806;9.140;2023-09-30T15:52:20;23.60;1.00
4637;DHT22;2331;48.806;9.140;2023-09-30T15:54:47;23.50;1.00
4637;DHT22;2331;48.806;9.140;2023-09-30T16:00:26;23.50;1.00
4637;DHT22;2331;48.806;9.140;2023-09-30T16:02:55;23.50;1.00
4637;DHT22;2331;48.806;9.140;2023-09-30T16:05:24;23.50;1.00
4637;DHT22;2331;48.806;9.140;2023-09-30T16:08:25;23.40;1.00
4637;DHT22;2331;48.806;9.140;2023-09-30T16:10:52;23.40;1.00
4637;DHT22;2331;48.806;9.140;2023-09-30T16:13:19;23.50;1.00
4637;DHT22;2331;48.806;9.140;2023-09-30T16:15:46;23.40;1.00
4637;DHT22;2331;48.806;9.140;2023-09-30T16:18:24;23.30;1.00
4637;DHT22;2331;48.806;9.140;2023-09-30T16:20:54;23.40;1.00
4637;DHT22;2331;48.806;9.140;2023-09-30T16:23:42;23.40;1.00
4637;DHT22;2331;48.806;9.140;2023-09-30T16:26:13;23.20;1.00
4637;DHT22;2331;48.806;9.140;2023-09-30T16:28:40;23.30;1.00
4637;DHT22;2331;48.806;9.140;2023-09-30T16:31:07;23.30;1.00
4637;DHT22;2331;48.806;9.140;2023-09-30T16:33:33;23.20;1.00